createdAt,value
2019-05-11T00:01:01.314Z,100536.77
2019-05-11T00:03:31.878Z,100542.58
2019-05-11T00:06:02.550Z,100544.42
2019-05-11T00:08:33.107Z,100549.87
2019-05-11T00:11:03.707Z,100548.19
2019-05-11T00:13:34.673Z,100551.05
2019-05-11T00:16:05.256Z,100550.23
2019-05-11T00:18:35.833Z,100553.60
2019-05-11T00:21:06.424Z,100562.10
2019-05-11T00:23:36.970Z,100560.57
2019-05-11T00:26:07.523Z,100562.44
2019-05-11T00:28:38.104Z,100567.86
2019-05-11T00:31:08.656Z,100564.80
2019-05-11T00:33:39.239Z,100562.39
2019-05-11T00:36:09.798Z,100564.96
2019-05-11T00:38:40.371Z,100560.38
2019-05-11T00:41:11.130Z,100560.73
2019-05-11T00:43:41.708Z,100564.98
2019-05-11T00:46:12.381Z,100559.37
2019-05-11T00:48:42.943Z,100561.77
2019-05-11T00:51:13.502Z,100555.98
2019-05-11T00:53:44.170Z,100552.27
2019-05-11T00:56:14.763Z,100557.70
2019-05-11T00:58:45.344Z,100556.83
2019-05-11T01:01:15.926Z,100560.40
2019-05-11T01:03:46.480Z,100566.18
2019-05-11T01:06:17.046Z,100563.63
2019-05-11T01:08:48.413Z,100571.11
2019-05-11T01:11:18.988Z,100578.42
2019-05-11T01:13:49.647Z,100585.25
2019-05-11T01:16:20.205Z,100578.45
2019-05-11T01:18:51.293Z,100585.93
2019-05-11T01:21:21.884Z,100579.81
2019-05-11T01:23:52.479Z,100586.09
2019-05-11T01:26:23.214Z,100593.23
2019-05-11T01:28:53.781Z,100595.79
2019-05-11T01:31:24.334Z,100596.11
2019-05-11T01:33:54.887Z,100595.27
2019-05-11T01:36:25.587Z,100603.94
2019-05-11T01:38:56.131Z,100589.99
2019-05-11T01:41:26.701Z,100593.58
2019-05-11T01:43:57.266Z,100587.62
2019-05-11T01:46:28.197Z,100595.95
2019-05-11T01:48:59.817Z,100594.75
2019-05-11T01:51:30.401Z,100599.17
2019-05-11T01:54:00.953Z,100593.05
2019-05-11T01:56:31.515Z,100592.87
2019-05-11T01:59:02.091Z,100589.65
2019-05-11T02:01:32.951Z,100597.30
2019-05-11T02:04:03.534Z,100594.08
2019-05-11T02:06:34.100Z,100599.02
2019-05-11T02:09:06.906Z,100600.03
2019-05-11T02:11:37.451Z,100598.64
2019-05-11T02:14:08.027Z,100594.05
2019-05-11T02:16:38.592Z,100594.06
2019-05-11T02:19:09.146Z,100596.44
2019-05-11T02:21:39.718Z,100595.45
2019-05-11T02:24:10.300Z,100586.27
2019-05-11T02:26:40.961Z,100588.98
2019-05-11T02:29:11.546Z,100603.44
2019-05-11T02:31:42.117Z,100597.15
2019-05-11T02:34:12.700Z,100598.13
2019-05-11T02:36:43.261Z,100600.34
2019-05-11T02:39:13.812Z,100603.56
2019-05-11T02:41:44.388Z,100609.69
2019-05-11T02:44:15.153Z,100606.45
2019-05-11T02:46:45.732Z,100607.31
2019-05-11T02:49:16.308Z,100588.62
2019-05-11T02:51:47.325Z,100585.73
2019-05-11T02:54:18.379Z,100598.98
2019-05-11T02:56:49.891Z,100600.50
2019-05-11T02:59:22.308Z,100595.92
2019-05-11T03:01:52.902Z,100583.17
2019-05-11T03:04:23.426Z,100584.53
2019-05-11T03:06:54.006Z,100589.63
2019-05-11T03:09:24.575Z,100591.67
2019-05-11T03:11:56.470Z,100588.95
2019-05-11T03:14:27.203Z,100586.91
2019-05-11T03:17:11.232Z,100593.54
2019-05-11T03:19:41.989Z,100593.71
2019-05-11T03:22:12.657Z,100596.25
2019-05-11T03:24:43.405Z,100601.86
2019-05-11T03:27:14.064Z,100606.27
2019-05-11T03:29:44.743Z,100605.57
2019-05-11T03:32:15.412Z,100612.69
2019-05-11T03:34:45.989Z,100612.36
2019-05-11T03:37:16.879Z,100619.16
2019-05-11T03:39:47.445Z,100620.85
2019-05-11T03:42:18.181Z,100621.89
2019-05-11T03:44:48.839Z,100621.48
2019-05-11T03:47:19.415Z,100629.50
2019-05-11T03:49:50.004Z,100629.68
2019-05-11T03:52:20.663Z,100636.70
2019-05-11T03:54:51.237Z,100635.36
2019-05-11T03:57:21.824Z,100643.73
2019-05-11T03:59:52.486Z,100640.50
2019-05-11T04:02:23.159Z,100641.42
2019-05-11T04:04:54.052Z,100643.34
2019-05-11T04:07:24.828Z,100647.96
2019-05-11T04:09:55.522Z,100657.63
2019-05-11T04:12:34.587Z,100661.70
2019-05-11T04:14:58.654Z,100673.48
2019-05-11T04:17:29.748Z,100678.84
2019-05-11T04:20:00.324Z,100683.45
2019-05-11T04:22:31.098Z,100686.03
2019-05-11T04:25:01.785Z,100689.02
2019-05-11T04:27:32.567Z,100687.95
2019-05-11T04:30:04.652Z,100689.79
2019-05-11T04:32:35.392Z,100686.66
2019-05-11T04:35:06.518Z,100688.82
2019-05-11T04:37:37.341Z,100683.34
2019-05-11T04:40:08.856Z,100688.91
2019-05-11T04:42:54.039Z,100679.96
2019-05-11T04:45:12.775Z,100694.80
2019-05-11T04:47:43.456Z,100694.38
2019-05-11T04:50:14.259Z,100697.48
2019-05-11T04:52:44.897Z,100703.72
2019-05-11T04:55:15.585Z,100703.67
2019-05-11T04:57:46.175Z,100706.25
2019-05-11T05:00:17.321Z,100702.66
2019-05-11T05:02:48.116Z,100696.94
2019-05-11T05:05:19.878Z,100706.88
2019-05-11T05:07:50.858Z,100704.80
2019-05-11T05:10:22.290Z,100711.30
2019-05-11T05:12:57.861Z,100707.13
2019-05-11T05:15:25.704Z,100704.11
2019-05-11T05:17:56.500Z,100708.11
2019-05-11T05:20:27.132Z,100714.06
2019-05-11T05:22:57.750Z,100709.70
2019-05-11T05:25:28.317Z,100718.56
2019-05-11T05:27:58.890Z,100717.17
2019-05-11T05:30:29.468Z,100712.44
2019-05-11T05:33:00.029Z,100720.44
2019-05-11T05:35:30.814Z,100724.00
2019-05-11T05:38:01.594Z,100726.97
2019-05-11T05:40:32.195Z,100722.81
2019-05-11T05:43:02.785Z,100719.84
2019-05-11T05:45:33.486Z,100710.91
2019-05-11T05:48:04.199Z,100707.67
2019-05-11T05:50:34.751Z,100715.84
2019-05-11T05:53:05.378Z,100718.91
2019-05-11T05:55:35.980Z,100719.56
2019-05-11T05:58:06.572Z,100723.66
2019-05-11T06:00:37.214Z,100720.30
2019-05-11T06:03:07.792Z,100718.81
2019-05-11T06:05:38.399Z,100710.80
2019-05-11T06:08:09.069Z,100715.83
2019-05-11T06:10:39.725Z,100714.80
2019-05-11T06:13:10.324Z,100714.80
2019-05-11T06:15:40.993Z,100715.30
2019-05-11T06:18:11.572Z,100715.33
2019-05-11T06:20:42.369Z,100706.15
2019-05-11T06:23:12.960Z,100701.51
2019-05-11T06:25:43.543Z,100698.11
2019-05-11T06:28:14.136Z,100692.98
2019-05-11T06:30:45.500Z,100695.50
2019-05-11T06:33:17.614Z,100697.03
2019-05-11T06:35:48.352Z,100708.23
2019-05-11T06:38:19.537Z,100709.58
2019-05-11T06:40:51.504Z,100710.63
2019-05-11T06:43:22.499Z,100716.94
2019-05-11T06:45:53.207Z,100717.42
2019-05-11T06:48:23.990Z,100718.58
2019-05-11T06:50:54.654Z,100718.84
2019-05-11T06:53:25.321Z,100719.20
2019-05-11T06:55:56.038Z,100723.55
2019-05-11T06:58:26.640Z,100720.41
2019-05-11T07:00:57.948Z,100719.70
2019-05-11T07:03:28.900Z,100721.67
2019-05-11T07:05:59.505Z,100717.42
2019-05-11T07:08:30.381Z,100714.88
2019-05-11T07:11:00.977Z,100722.77
2019-05-11T07:13:31.581Z,100711.96
2019-05-11T07:16:02.294Z,100715.20
2019-05-11T07:18:32.850Z,100713.80
2019-05-11T07:21:03.411Z,100712.68
2019-05-11T07:23:34.080Z,100700.06
2019-05-11T07:26:05.466Z,100707.98
2019-05-11T07:28:36.873Z,100704.28
2019-05-11T07:31:08.433Z,100705.98
2019-05-11T07:33:39.963Z,100701.09
2019-05-11T07:36:10.825Z,100701.25
2019-05-11T07:38:42.384Z,100700.54
2019-05-11T07:41:12.969Z,100694.50
2019-05-11T07:43:43.563Z,100700.58
2019-05-11T07:46:14.151Z,100705.09
2019-05-11T07:48:44.739Z,100707.61
2019-05-11T07:51:15.332Z,100701.80
2019-05-11T07:53:48.437Z,100700.88
2019-05-11T07:56:18.876Z,100702.55
2019-05-11T07:58:49.901Z,100707.30
2019-05-11T08:01:20.471Z,100703.18
2019-05-11T08:03:51.176Z,100702.22
2019-05-11T08:06:21.726Z,100700.11
2019-05-11T08:08:53.108Z,100694.78
2019-05-11T08:11:23.733Z,100691.73
2019-05-11T08:13:54.561Z,100688.09
2019-05-11T08:16:25.134Z,100687.94
2019-05-11T08:18:58.612Z,100679.36
2019-05-11T08:21:28.555Z,100679.85
2019-05-11T08:23:59.331Z,100669.16
2019-05-11T08:26:30.014Z,100670.52
2019-05-11T08:29:00.600Z,100671.08
2019-05-11T08:31:31.399Z,100665.87
2019-05-11T08:34:02.195Z,100664.16
2019-05-11T08:36:32.925Z,100664.63
2019-05-11T08:39:03.775Z,100661.47
2019-05-11T08:41:34.528Z,100666.90
2019-05-11T08:44:08.708Z,100671.51
2019-05-11T08:46:38.955Z,100673.71
2019-05-11T08:49:09.688Z,100678.06
2019-05-11T08:51:40.312Z,100676.92
2019-05-11T08:54:10.899Z,100665.62
2019-05-11T08:56:41.586Z,100681.67
2019-05-11T08:59:12.168Z,100672.69
2019-05-11T09:01:42.940Z,100678.05
2019-05-11T09:04:13.520Z,100674.21
2019-05-11T09:06:44.100Z,100676.30
2019-05-11T09:09:14.709Z,100669.99
2019-05-11T09:11:45.265Z,100662.39
2019-05-11T09:14:15.845Z,100662.41
2019-05-11T09:16:48.914Z,100670.46
2019-05-11T09:19:19.945Z,100673.44
2019-05-11T09:21:50.514Z,100674.91
2019-05-11T09:24:21.091Z,100667.10
2019-05-11T09:26:51.783Z,100659.27
2019-05-11T09:29:22.354Z,100658.23
2019-05-11T09:31:52.925Z,100653.57
2019-05-11T09:34:23.505Z,100654.06
2019-05-11T09:36:54.219Z,100649.75
2019-05-11T09:39:24.819Z,100654.13
2019-05-11T09:41:55.544Z,100644.97
2019-05-11T09:44:28.613Z,100651.78
2019-05-11T09:47:02.216Z,100655.12
2019-05-11T09:49:44.045Z,100648.27
2019-05-11T09:52:03.332Z,100654.83
2019-05-11T09:54:34.162Z,100644.13
2019-05-11T09:57:04.847Z,100651.22
2019-05-11T09:59:35.580Z,100644.12
2019-05-11T10:02:07.974Z,100647.58
2019-05-11T10:04:38.920Z,100638.82
2019-05-11T10:07:09.574Z,100640.05
2019-05-11T10:09:40.259Z,100639.57
2019-05-11T10:12:10.813Z,100640.14
2019-05-11T10:14:41.509Z,100642.68
2019-05-11T10:17:12.158Z,100643.58
2019-05-11T10:19:42.812Z,100643.63
2019-05-11T10:22:13.407Z,100634.34
2019-05-11T10:24:44.043Z,100640.87
2019-05-11T10:27:14.844Z,100640.36
2019-05-11T10:29:45.426Z,100645.33
2019-05-11T10:32:18.207Z,100634.47
2019-05-11T10:34:51.334Z,100633.11
2019-05-11T10:37:22.049Z,100631.95
2019-05-11T10:39:52.651Z,100628.13
2019-05-11T10:42:23.355Z,100629.30
2019-05-11T10:44:53.938Z,100627.91
2019-05-11T10:47:24.736Z,100620.77
2019-05-11T10:49:57.718Z,100631.16
2019-05-11T10:52:28.595Z,100628.51
2019-05-11T10:54:59.421Z,100624.61
2019-05-11T10:57:30.791Z,100623.91
2019-05-11T11:00:01.554Z,100616.64
2019-05-11T11:02:32.200Z,100622.48
2019-05-11T11:05:02.899Z,100621.31
2019-05-11T11:07:33.832Z,100618.84
2019-05-11T11:10:04.487Z,100616.16
2019-05-11T11:12:35.147Z,100615.64
2019-05-11T11:15:07.934Z,100613.49
2019-05-11T11:17:38.529Z,100606.06
2019-05-11T11:20:10.456Z,100606.66
2019-05-11T11:22:51.517Z,100599.86
2019-05-11T11:25:22.224Z,100599.54
2019-05-11T11:27:52.870Z,100601.69
2019-05-11T11:30:23.636Z,100590.02
2019-05-11T11:32:55.173Z,100595.05
2019-05-11T11:35:27.902Z,100601.30
2019-05-11T11:37:58.981Z,100598.31
2019-05-11T11:40:29.561Z,100589.18
2019-05-11T11:43:02.805Z,100588.63
2019-05-11T11:45:33.382Z,100596.05
2019-05-11T11:48:03.935Z,100589.17
2019-05-11T11:50:34.525Z,100592.44
2019-05-11T11:53:05.126Z,100588.09
2019-05-11T11:55:36.098Z,100589.11
2019-05-11T11:58:08.246Z,100593.33
2019-05-11T12:00:40.118Z,100587.04
2019-05-11T12:03:10.686Z,100585.64
2019-05-11T12:05:42.331Z,100585.04
2019-05-11T12:08:12.945Z,100578.95
2019-05-11T12:10:43.500Z,100592.56
2019-05-11T12:13:14.067Z,100588.11
2019-05-11T12:15:44.736Z,100589.48
2019-05-11T12:18:15.314Z,100595.78
2019-05-11T12:20:48.129Z,100596.63
2019-05-11T12:23:18.771Z,100595.39
2019-05-11T12:25:49.445Z,100594.17
2019-05-11T12:28:20.043Z,100595.78
2019-05-11T12:30:50.991Z,100600.08
2019-05-11T12:33:21.638Z,100602.07
2019-05-11T12:35:52.214Z,100595.33
2019-05-11T12:38:24.314Z,100602.38
2019-05-11T12:40:54.833Z,100598.92
2019-05-11T12:43:27.550Z,100597.72
2019-05-11T12:45:59.297Z,100596.47
2019-05-11T12:48:30.043Z,100588.69
2019-05-11T12:51:00.611Z,100587.61
2019-05-11T12:53:31.167Z,100589.66
2019-05-11T12:56:01.769Z,100586.73
2019-05-11T12:58:32.347Z,100589.20
2019-05-11T13:01:03.693Z,100589.83
2019-05-11T13:03:34.358Z,100584.95
2019-05-11T13:06:04.945Z,100588.07
2019-05-11T13:08:38.883Z,100585.58
2019-05-11T13:11:09.653Z,100587.61
2019-05-11T13:13:40.288Z,100584.38
2019-05-11T13:16:24.715Z,100573.31
2019-05-11T13:18:57.535Z,100569.66
2019-05-11T13:21:29.030Z,100566.98
2019-05-11T13:23:59.917Z,100571.47
2019-05-11T13:26:30.569Z,100574.21
2019-05-11T13:29:02.789Z,100580.45
2019-05-11T13:31:33.351Z,100578.17
2019-05-11T13:34:04.727Z,100573.56
2019-05-11T13:36:38.134Z,100576.72
2019-05-11T13:39:09.077Z,100579.70
2019-05-11T13:41:39.975Z,100580.31
2019-05-11T13:44:10.549Z,100576.78
2019-05-11T13:46:41.334Z,100574.09
2019-05-11T13:49:11.922Z,100573.98
2019-05-11T13:51:43.017Z,100575.63
2019-05-11T13:54:13.731Z,100582.28
2019-05-11T13:56:44.330Z,100576.02
2019-05-11T13:59:14.912Z,100575.59
2019-05-11T14:01:47.594Z,100585.25
2019-05-11T14:04:18.327Z,100579.73
2019-05-11T14:06:50.300Z,100577.19
2019-05-11T14:09:21.942Z,100580.03
2019-05-11T14:11:53.918Z,100580.88
2019-05-11T14:14:25.631Z,100574.09
2019-05-11T14:16:58.648Z,100574.59
2019-05-11T14:19:29.170Z,100577.16
2019-05-11T14:22:00.153Z,100577.48
2019-05-11T14:24:30.748Z,100581.20
2019-05-11T14:27:01.524Z,100578.63
2019-05-11T14:29:32.089Z,100578.23
2019-05-11T14:32:02.669Z,100552.52
2019-05-11T14:34:33.217Z,100572.77
2019-05-11T14:37:04.871Z,100574.33
2019-05-11T14:39:35.486Z,100572.98
2019-05-11T14:42:07.695Z,100572.98
2019-05-11T14:44:38.432Z,100579.81
2019-05-11T14:47:09.131Z,100579.81
2019-05-11T14:49:39.737Z,100575.54
2019-05-11T14:52:10.329Z,100576.32
2019-05-11T14:54:42.396Z,100568.73
2019-05-11T14:57:12.944Z,100571.63
2019-05-11T14:59:44.628Z,100576.74
2019-05-11T15:02:33.045Z,100571.77
2019-05-11T15:05:04.325Z,100573.36
2019-05-11T15:07:34.900Z,100581.47
2019-05-11T15:10:08.088Z,100577.47
2019-05-11T15:12:38.801Z,100585.61
2019-05-11T15:15:13.120Z,100594.95
2019-05-11T15:17:43.704Z,100594.80
2019-05-11T15:20:14.721Z,100594.82
2019-05-11T15:22:45.322Z,100587.84
2019-05-11T15:25:19.387Z,100599.37
2019-05-11T15:27:50.519Z,100605.73
2019-05-11T15:30:21.672Z,100603.95
2019-05-11T15:32:52.282Z,100604.75
2019-05-11T15:35:23.695Z,100604.75
2019-05-11T15:37:54.314Z,100599.03
2019-05-11T15:40:24.944Z,100602.09
2019-05-11T15:42:55.660Z,100603.69
2019-05-11T15:45:27.766Z,100600.84
2019-05-11T15:47:59.069Z,100596.61
2019-05-11T15:50:32.757Z,100597.98
2019-05-11T15:53:03.377Z,100601.19
2019-05-11T15:55:34.065Z,100604.08
2019-05-11T15:58:05.393Z,100608.41
2019-05-11T16:00:39.749Z,100604.39
2019-05-11T16:03:08.404Z,100606.83
2019-05-11T16:05:39.130Z,100607.56
2019-05-11T16:08:09.718Z,100611.48
2019-05-11T16:10:40.326Z,100611.23
2019-05-11T16:13:12.470Z,100612.81
2019-05-11T16:15:43.437Z,100608.27
2019-05-11T16:18:13.988Z,100611.77
2019-05-11T16:20:44.571Z,100614.61
2019-05-11T16:23:17.533Z,100617.03
2019-05-11T16:25:48.939Z,100616.29
2019-05-11T16:28:19.677Z,100611.11
2019-05-11T16:30:50.266Z,100610.89
2019-05-11T16:33:20.827Z,100620.81
2019-05-11T16:35:51.401Z,100623.45
2019-05-11T16:38:21.974Z,100613.74
2019-05-11T16:40:52.658Z,100620.48
2019-05-11T16:43:23.315Z,100620.80
2019-05-11T16:45:53.971Z,100621.02
2019-05-11T16:48:24.547Z,100617.52
2019-05-11T16:50:57.944Z,100624.03
2019-05-11T16:53:30.217Z,100623.83
2019-05-11T16:56:01.068Z,100617.58
2019-05-11T16:58:31.680Z,100626.95
2019-05-11T17:01:02.226Z,100622.94
2019-05-11T17:03:32.794Z,100619.55
2019-05-11T17:06:03.375Z,100623.16
2019-05-11T17:08:33.965Z,100628.02
2019-05-11T17:11:04.639Z,100624.72
2019-05-11T17:13:37.770Z,100622.63
2019-05-11T17:16:08.685Z,100631.70
2019-05-11T17:18:40.773Z,100635.38
2019-05-11T17:21:11.397Z,100639.27
2019-05-11T17:23:42.031Z,100641.22
2019-05-11T17:26:12.718Z,100644.86
2019-05-11T17:28:43.418Z,100636.31
2019-05-11T17:31:14.025Z,100643.05
2019-05-11T17:33:44.626Z,100634.45
2019-05-11T17:36:15.207Z,100646.31
2019-05-11T17:38:47.953Z,100647.37
2019-05-11T17:41:18.768Z,100649.67
2019-05-11T17:43:49.607Z,100647.09
2019-05-11T17:46:20.290Z,100654.16
2019-05-11T17:48:51.000Z,100644.55
2019-05-11T17:51:25.053Z,100649.27
2019-05-11T17:53:54.993Z,100645.64
2019-05-11T17:56:27.890Z,100644.69
2019-05-11T17:58:58.459Z,100654.48
2019-05-11T18:01:29.675Z,100651.81
2019-05-11T18:04:00.654Z,100660.41
2019-05-11T18:06:31.244Z,100664.37
2019-05-11T18:09:01.978Z,100661.66
2019-05-11T18:11:34.040Z,100659.91
2019-05-11T18:14:05.409Z,100674.11
2019-05-11T18:16:36.254Z,100676.93
2019-05-11T18:19:08.484Z,100674.69
2019-05-11T18:21:41.466Z,100670.53
2019-05-11T18:24:12.050Z,100672.55
2019-05-11T18:26:43.248Z,100677.84
2019-05-11T18:29:14.226Z,100685.42
2019-05-11T18:31:45.528Z,100686.61
2019-05-11T18:34:17.842Z,100696.52
2019-05-11T18:36:49.296Z,100701.61
2019-05-11T18:39:20.266Z,100714.06
2019-05-11T18:41:50.850Z,100729.77
2019-05-11T18:44:21.725Z,100730.28
2019-05-11T18:46:52.460Z,100738.18
2019-05-11T18:49:23.978Z,100741.77
2019-05-11T18:51:55.087Z,100746.27
2019-05-11T18:54:27.738Z,100740.92
2019-05-11T18:56:59.661Z,100747.97
2019-05-11T18:59:37.370Z,100737.73
2019-05-11T19:02:09.705Z,100736.11
2019-05-11T19:04:40.527Z,100736.31
2019-05-11T19:07:16.255Z,100734.81
2019-05-11T19:09:44.161Z,100742.84
2019-05-11T19:12:18.771Z,100737.84
2019-05-11T19:14:49.646Z,100744.40
2019-05-11T19:17:20.807Z,100746.75
2019-05-11T19:19:51.596Z,100744.53
2019-05-11T19:22:23.972Z,100739.93
2019-05-11T19:24:58.244Z,100739.50
2019-05-11T19:27:29.584Z,100750.37
2019-05-11T19:30:03.118Z,100753.13
2019-05-11T19:32:38.050Z,100755.86
2019-05-11T19:35:10.988Z,100740.78
2019-05-11T19:37:42.567Z,100742.85
2019-05-11T19:40:14.797Z,100753.11
2019-05-11T19:42:55.043Z,100744.63
2019-05-11T19:45:30.135Z,100755.25
2019-05-11T19:48:01.046Z,100759.41
2019-05-11T19:50:32.135Z,100765.08
2019-05-11T19:53:03.569Z,100758.67
2019-05-11T19:55:34.672Z,100761.02
2019-05-11T19:58:05.449Z,100750.66
2019-05-11T20:00:37.994Z,100758.75
2019-05-11T20:03:10.918Z,100754.80
2019-05-11T20:05:41.497Z,100754.14
2019-05-11T20:10:58.222Z,100757.59
2019-05-11T20:13:28.624Z,100760.56
2019-05-11T20:15:59.225Z,100762.35
2019-05-11T20:18:29.964Z,100773.77
2019-05-11T20:21:14.277Z,100775.51
2019-05-11T20:23:33.251Z,100776.69
2019-05-11T20:26:03.924Z,100776.68
2019-05-11T20:28:34.592Z,100781.91
2019-05-11T20:31:07.874Z,100784.98
2019-05-11T20:33:38.574Z,100783.91
2019-05-11T20:36:10.726Z,100786.59
2019-05-11T20:38:41.334Z,100785.23
2019-05-11T20:41:11.973Z,100793.34
2019-05-11T20:43:42.616Z,100791.88
2019-05-11T20:46:18.403Z,100796.55
2019-05-11T20:48:52.455Z,100794.00
2019-05-11T20:51:34.214Z,100793.11
2019-05-11T20:53:57.875Z,100796.36
2019-05-11T20:56:28.864Z,100793.63
2019-05-11T20:58:59.953Z,100804.52
2019-05-11T21:01:30.823Z,100815.61
2019-05-11T21:04:01.518Z,100811.69
2019-05-11T21:06:32.379Z,100813.95
2019-05-11T21:09:06.563Z,100822.54
2019-05-11T21:11:38.640Z,100821.55
2019-05-11T21:14:09.296Z,100816.21
2019-05-11T21:16:39.873Z,100816.24
2019-05-11T21:19:10.452Z,100818.70
2019-05-11T21:21:49.974Z,100819.78
2019-05-11T21:24:14.872Z,100818.75
2019-05-11T21:26:47.790Z,100823.06
2019-05-11T21:29:18.765Z,100820.37
2019-05-11T21:31:49.800Z,100821.22
2019-05-11T21:34:20.506Z,100829.14
2019-05-11T21:36:51.366Z,100834.05
2019-05-11T21:39:21.957Z,100828.47
2019-05-11T21:41:52.641Z,100833.05
2019-05-11T21:44:23.255Z,100839.35
2019-05-11T21:46:54.916Z,100845.23
2019-05-11T21:49:25.507Z,100848.63
2019-05-11T21:52:03.942Z,100852.30
2019-05-11T21:54:30.322Z,100860.38
2019-05-11T21:57:00.938Z,100863.27
2019-05-11T21:59:31.798Z,100862.56
2019-05-11T22:02:02.481Z,100873.28
2019-05-11T22:04:33.065Z,100866.92
2019-05-11T22:07:03.698Z,100873.79
2019-05-11T22:09:38.286Z,100882.27
2019-05-11T22:12:10.806Z,100885.99
2019-05-11T22:14:40.810Z,100894.53
2019-05-11T22:17:11.427Z,100898.08
2019-05-11T22:19:43.227Z,100901.44
2019-05-11T22:22:22.523Z,100908.58
2019-05-11T22:24:47.685Z,100912.23
2019-05-11T22:27:18.572Z,100917.48
2019-05-11T22:29:49.415Z,100922.80
2019-05-11T22:32:20.108Z,100922.63
2019-05-11T22:34:50.684Z,100933.04
2019-05-11T22:37:21.283Z,100935.66
2019-05-11T22:39:51.991Z,100926.94
2019-05-11T22:42:22.757Z,100941.55
2019-05-11T22:44:53.411Z,100941.62
2019-05-11T22:47:24.298Z,100945.93
2019-05-11T22:49:55.141Z,100955.98
2019-05-11T22:52:35.854Z,100949.04
2019-05-11T22:54:59.026Z,100949.55
2019-05-11T22:57:30.614Z,100949.06
2019-05-11T23:00:01.682Z,100953.98
2019-05-11T23:02:34.045Z,100963.20
2019-05-11T23:05:08.577Z,100964.57
2019-05-11T23:07:41.534Z,100963.72
2019-05-11T23:10:12.318Z,100967.16
2019-05-11T23:12:43.029Z,100964.57
2019-05-11T23:15:14.747Z,100967.12
2019-05-11T23:17:45.525Z,100973.27
2019-05-11T23:20:18.271Z,100972.58
2019-05-11T23:22:57.330Z,100971.22
2019-05-11T23:25:22.199Z,100974.97
2019-05-11T23:27:52.951Z,100969.51
2019-05-11T23:30:23.748Z,100975.30
2019-05-11T23:32:55.525Z,100979.05
2019-05-11T23:35:28.404Z,100976.16
2019-05-11T23:37:58.641Z,100981.09
2019-05-11T23:40:29.207Z,100982.13
2019-05-11T23:42:59.875Z,100983.48
2019-05-11T23:45:30.453Z,100980.91
2019-05-11T23:48:01.040Z,100984.15
2019-05-11T23:50:31.609Z,100979.39
2019-05-11T23:53:06.649Z,100982.27
2019-05-11T23:55:34.483Z,100973.42
2019-05-11T23:58:05.044Z,100978.03
